createdAt,value
2022-09-14T00:00:24.133Z,53.81
2022-09-14T00:02:57.030Z,53.49
2022-09-14T00:05:31.050Z,53.99
2022-09-14T00:08:04.039Z,53.82
2022-09-14T00:10:39.130Z,53.56
2022-09-14T00:13:13.312Z,53.89
2022-09-14T00:15:46.782Z,53.83
2022-09-14T00:18:19.478Z,53.95
2022-09-14T00:20:53.894Z,53.79
2022-09-14T00:23:26.580Z,54.30
2022-09-14T00:26:03.710Z,53.85
2022-09-14T00:28:38.911Z,54.16
2022-09-14T00:31:12.272Z,53.67
2022-09-14T00:33:47.287Z,53.88
2022-09-14T00:36:24.741Z,53.74
2022-09-14T00:38:58.295Z,53.73
2022-09-14T00:41:33.186Z,53.71
2022-09-14T00:44:08.753Z,54.49
2022-09-14T00:46:44.104Z,54.38
2022-09-14T00:49:19.604Z,54.08
2022-09-14T00:51:59.876Z,53.70
2022-09-14T00:54:32.738Z,54.06
2022-09-14T00:57:06.196Z,54.14
2022-09-14T00:59:40.609Z,54.39
2022-09-14T01:02:15.781Z,53.88
2022-09-14T01:04:50.046Z,53.79
2022-09-14T01:07:46.305Z,53.66
2022-09-14T01:10:29.713Z,54.10
2022-09-14T01:13:08.924Z,53.76
2022-09-14T01:16:03.835Z,53.93
2022-09-14T01:18:40.451Z,54.25
2022-09-14T01:21:17.041Z,54.49
2022-09-14T01:23:58.289Z,54.15
2022-09-14T01:27:24.368Z,53.89
2022-09-14T01:30:05.893Z,53.83
2022-09-14T01:32:43.963Z,54.34
2022-09-14T01:35:24.070Z,54.55
2022-09-14T01:38:01.616Z,54.12
2022-09-14T01:40:38.299Z,53.90
2022-09-14T01:43:15.663Z,54.11
2022-09-14T01:45:52.933Z,54.29
2022-09-14T01:48:35.946Z,54.28
2022-09-14T01:51:15.347Z,54.71
2022-09-14T01:53:51.021Z,54.25
2022-09-14T01:56:31.985Z,54.39
2022-09-14T01:59:10.426Z,54.40
2022-09-14T02:01:50.631Z,54.58
2022-09-14T02:04:30.420Z,54.55
2022-09-14T02:07:03.792Z,54.67
2022-09-14T02:09:36.625Z,54.44
2022-09-14T02:12:09.903Z,54.65
2022-09-14T02:14:43.890Z,54.08
2022-09-14T02:17:18.047Z,54.70
2022-09-14T02:19:55.119Z,54.42
2022-09-14T02:22:30.070Z,54.48
2022-09-14T02:25:03.075Z,54.79
2022-09-14T02:27:35.843Z,54.87
2022-09-14T02:30:10.032Z,54.57
2022-09-14T02:32:56.388Z,54.51
2022-09-14T02:35:37.196Z,55.46
2022-09-14T02:38:18.030Z,54.29
2022-09-14T02:40:58.020Z,54.81
2022-09-14T02:43:39.506Z,54.31
2022-09-14T02:46:18.377Z,54.58
2022-09-14T02:48:59.084Z,54.58
2022-09-14T02:51:35.302Z,54.36
2022-09-14T02:54:12.764Z,54.55
2022-09-14T02:56:46.083Z,54.56
2022-09-14T02:59:19.059Z,54.97
2022-09-14T03:01:51.597Z,54.64
2022-09-14T03:04:25.637Z,54.74
2022-09-14T03:06:58.305Z,54.85
2022-09-14T03:09:30.989Z,54.89
2022-09-14T03:12:04.274Z,55.20
2022-09-14T03:14:36.974Z,55.27
2022-09-14T03:17:09.732Z,55.23
2022-09-14T03:19:43.774Z,54.74
2022-09-14T03:22:16.584Z,54.97
2022-09-14T03:24:49.463Z,55.21
2022-09-14T03:27:22.100Z,54.65
2022-09-14T03:29:55.198Z,54.95
2022-09-14T03:32:27.842Z,54.86
2022-09-14T03:35:02.255Z,54.85
2022-09-14T03:37:38.360Z,54.70
2022-09-14T03:40:15.983Z,55.14
2022-09-14T03:42:52.774Z,54.96
2022-09-14T03:45:25.833Z,55.08
2022-09-14T03:47:58.337Z,54.63
2022-09-14T03:50:32.738Z,54.87
2022-09-14T03:53:05.420Z,55.22
2022-09-14T03:55:41.045Z,55.05
2022-09-14T03:58:13.625Z,55.05
2022-09-14T04:00:46.286Z,54.93
2022-09-14T04:03:19.281Z,54.82
2022-09-14T04:05:57.224Z,55.49
2022-09-14T04:08:29.956Z,55.13
2022-09-14T04:11:07.914Z,54.72
2022-09-14T04:13:41.465Z,55.21
2022-09-14T04:16:15.090Z,54.71
2022-09-14T04:18:48.392Z,55.13
2022-09-14T04:21:25.146Z,55.25
2022-09-14T04:24:15.885Z,54.99
2022-09-14T04:26:49.081Z,55.29
2022-09-14T04:29:21.844Z,55.32
2022-09-14T04:31:54.831Z,55.52
2022-09-14T04:34:27.558Z,54.57
2022-09-14T04:37:01.661Z,54.83
2022-09-14T04:39:34.401Z,56.08
2022-09-14T04:42:08.102Z,54.69
2022-09-14T04:44:41.110Z,55.67
2022-09-14T04:47:13.691Z,55.56
2022-09-14T04:49:46.387Z,55.21
2022-09-14T04:52:20.426Z,55.37
2022-09-14T04:54:53.093Z,55.30
2022-09-14T04:57:25.905Z,54.94
2022-09-14T04:59:58.586Z,55.07
2022-09-14T05:02:31.956Z,55.13
2022-09-14T05:05:05.282Z,55.23
2022-09-14T05:07:39.250Z,55.10
2022-09-14T05:10:11.940Z,55.61
2022-09-14T05:12:44.590Z,55.07
2022-09-14T05:15:17.366Z,55.49
2022-09-14T05:17:50.339Z,55.08
2022-09-14T05:20:22.860Z,55.55
2022-09-14T05:22:57.258Z,55.27
2022-09-14T05:25:29.897Z,56.38
2022-09-14T05:28:03.219Z,55.27
2022-09-14T05:30:35.947Z,55.66
2022-09-14T05:33:09.214Z,55.90
2022-09-14T05:35:41.858Z,55.98
2022-09-14T05:38:15.928Z,55.72
2022-09-14T05:40:48.573Z,55.62
2022-09-14T05:43:22.616Z,55.79
2022-09-14T05:45:55.323Z,55.71
2022-09-14T05:48:27.979Z,55.68
2022-09-14T05:51:01.261Z,55.75
2022-09-14T05:53:35.671Z,55.70
2022-09-14T05:56:10.682Z,55.02
2022-09-14T05:58:44.025Z,55.81
2022-09-14T06:01:19.434Z,55.61
2022-09-14T06:03:54.871Z,55.46
2022-09-14T06:06:27.962Z,55.25
2022-09-14T06:09:01.944Z,55.97
2022-09-14T06:11:37.302Z,55.67
2022-09-14T06:14:10.039Z,55.95
2022-09-14T06:16:42.689Z,55.91
2022-09-14T06:19:16.353Z,55.95
2022-09-14T06:21:51.487Z,55.46
2022-09-14T06:24:26.073Z,55.71
2022-09-14T06:26:59.897Z,56.16
2022-09-14T06:29:33.604Z,55.50
2022-09-14T06:32:07.462Z,56.00
2022-09-14T06:34:41.111Z,55.96
2022-09-14T06:37:14.063Z,55.86
2022-09-14T06:39:48.049Z,55.66
2022-09-14T06:42:20.850Z,55.52
2022-09-14T06:44:57.920Z,56.15
2022-09-14T06:47:33.018Z,55.56
2022-09-14T06:50:06.978Z,56.10
2022-09-14T06:52:40.156Z,56.33
2022-09-14T06:55:14.221Z,55.82
2022-09-14T06:57:49.181Z,55.74
2022-09-14T07:00:21.953Z,55.59
2022-09-14T07:02:56.586Z,55.82
2022-09-14T07:05:29.281Z,55.57
2022-09-14T07:08:02.255Z,55.46
2022-09-14T07:10:36.321Z,55.24
2022-09-14T07:13:08.932Z,55.85
2022-09-14T07:15:49.456Z,55.59
2022-09-14T07:18:22.387Z,55.89
2022-09-14T07:20:55.134Z,56.14
2022-09-14T07:23:27.757Z,55.29
2022-09-14T07:26:03.759Z,55.81
2022-09-14T07:28:37.875Z,55.61
2022-09-14T07:31:17.019Z,55.84
2022-09-14T07:33:53.269Z,55.83
2022-09-14T07:36:29.523Z,55.80
2022-09-14T07:39:07.088Z,55.67
2022-09-14T07:41:41.688Z,55.65
2022-09-14T07:44:16.481Z,55.96
2022-09-14T07:46:49.425Z,55.43
2022-09-14T07:49:22.661Z,55.64
2022-09-14T07:51:55.282Z,55.39
2022-09-14T07:54:27.966Z,55.86
2022-09-14T07:57:02.160Z,56.00
2022-09-14T07:59:36.542Z,55.77
2022-09-14T08:02:12.067Z,55.68
2022-09-14T08:04:44.803Z,55.86
2022-09-14T08:07:17.510Z,55.57
2022-09-14T08:09:50.150Z,55.30
2022-09-14T08:12:24.215Z,55.52
2022-09-14T08:14:56.810Z,55.43
2022-09-14T08:17:29.445Z,55.46
2022-09-14T08:20:02.093Z,55.38
2022-09-14T08:22:35.375Z,55.27
2022-09-14T08:25:08.662Z,55.35
2022-09-14T08:27:43.152Z,55.16
2022-09-14T08:30:15.978Z,55.42
2022-09-14T08:32:48.659Z,55.31
2022-09-14T08:35:35.441Z,55.15
2022-09-14T08:38:14.252Z,55.06
2022-09-14T08:40:47.592Z,55.31
2022-09-14T08:43:25.922Z,55.06
2022-09-14T08:46:04.265Z,54.99
2022-09-14T08:48:41.524Z,54.87
2022-09-14T08:51:14.258Z,55.12
2022-09-14T08:53:47.393Z,55.17
2022-09-14T08:56:25.059Z,55.34
2022-09-14T08:59:17.561Z,55.08
2022-09-14T09:01:59.837Z,55.08
2022-09-14T09:04:42.656Z,55.07
2022-09-14T09:07:20.172Z,55.24
2022-09-14T09:09:54.428Z,55.35
2022-09-14T09:12:34.243Z,55.32
2022-09-14T09:15:18.924Z,55.21
2022-09-14T09:17:56.447Z,55.24
2022-09-14T09:20:33.592Z,55.54
2022-09-14T09:23:15.191Z,55.35
2022-09-14T09:25:54.805Z,55.34
2022-09-14T09:28:29.761Z,55.23
2022-09-14T09:31:12.662Z,55.44
2022-09-14T09:34:17.869Z,55.27
2022-09-14T09:36:50.846Z,55.14
2022-09-14T09:39:24.294Z,55.27
2022-09-14T09:41:59.096Z,55.03
2022-09-14T09:44:51.923Z,54.74
2022-09-14T09:47:32.155Z,55.01
2022-09-14T09:50:07.315Z,55.22
2022-09-14T09:52:50.504Z,54.83
2022-09-14T09:55:26.514Z,55.54
2022-09-14T09:58:22.824Z,55.30
2022-09-14T10:01:00.798Z,55.18
2022-09-14T10:03:38.064Z,54.91
2022-09-14T10:06:14.741Z,55.12
2022-09-14T10:08:48.532Z,54.82
2022-09-14T10:11:31.330Z,55.13
2022-09-14T10:14:04.780Z,55.27
2022-09-14T10:16:40.255Z,55.41
2022-09-14T10:19:16.846Z,55.48
2022-09-14T10:22:04.790Z,55.29
2022-09-14T10:24:38.681Z,55.27
2022-09-14T10:27:37.013Z,55.31
2022-09-14T10:30:15.384Z,55.16
2022-09-14T10:32:54.588Z,55.13
2022-09-14T10:35:37.552Z,55.32
2022-09-14T10:38:31.216Z,55.13
2022-09-14T10:41:26.172Z,55.09
2022-09-14T10:44:47.108Z,55.05
2022-09-14T10:48:03.360Z,55.64
2022-09-14T10:50:48.367Z,54.99
2022-09-14T10:53:35.346Z,54.94
2022-09-14T10:56:16.883Z,55.46
2022-09-14T10:59:13.544Z,55.31
2022-09-14T11:02:20.548Z,55.38
2022-09-14T11:05:05.489Z,55.20
2022-09-14T11:07:46.776Z,54.63
2022-09-14T11:10:26.107Z,54.80
2022-09-14T11:13:19.988Z,55.15
2022-09-14T11:16:00.748Z,56.00
2022-09-14T11:18:45.039Z,54.75
2022-09-14T11:21:25.005Z,54.81
2022-09-14T11:24:04.554Z,54.17
2022-09-14T11:26:42.456Z,54.24
2022-09-14T11:29:21.377Z,54.35
2022-09-14T11:32:22.750Z,54.07
2022-09-14T11:35:00.105Z,54.16
2022-09-14T11:37:41.076Z,54.32
2022-09-14T11:40:24.123Z,54.32
2022-09-14T11:42:58.808Z,54.82
2022-09-14T11:45:35.381Z,53.44
2022-09-14T11:48:43.434Z,52.71
2022-09-14T11:51:15.310Z,53.55
2022-09-14T11:53:48.311Z,54.51
2022-09-14T11:56:26.353Z,53.89
2022-09-14T11:59:01.394Z,54.04
2022-09-14T12:01:36.859Z,53.20
2022-09-14T12:04:15.423Z,53.87
2022-09-14T12:06:55.671Z,51.97
2022-09-14T12:09:54.928Z,52.88
2022-09-14T12:12:38.750Z,52.29
2022-09-14T12:15:33.710Z,52.78
2022-09-14T12:18:22.744Z,51.96
2022-09-14T12:21:03.743Z,52.41
2022-09-14T12:23:44.583Z,51.79
2022-09-14T12:26:39.459Z,51.72
2022-09-14T12:29:33.572Z,50.99
2022-09-14T12:32:23.289Z,50.54
2022-09-14T12:35:33.234Z,50.93
2022-09-14T12:38:39.231Z,51.40
2022-09-14T12:41:49.079Z,51.32
2022-09-14T12:44:38.460Z,49.90
2022-09-14T12:47:57.139Z,50.49
2022-09-14T12:50:34.885Z,50.12
2022-09-14T12:53:30.706Z,49.58
2022-09-14T12:56:06.230Z,49.58
2022-09-14T12:59:01.248Z,49.10
2022-09-14T13:01:45.589Z,48.78
2022-09-14T13:04:25.867Z,48.46
2022-09-14T13:07:01.503Z,48.30
2022-09-14T13:09:34.936Z,48.28
2022-09-14T13:12:13.983Z,48.30
2022-09-14T13:14:49.182Z,47.94
2022-09-14T13:17:24.174Z,47.99
2022-09-14T13:19:58.195Z,47.90
2022-09-14T13:22:33.193Z,47.65
2022-09-14T13:25:07.003Z,47.48
2022-09-14T13:27:41.083Z,46.64
2022-09-14T13:30:21.300Z,48.26
2022-09-14T13:32:58.905Z,46.77
2022-09-14T13:35:36.126Z,47.64
2022-09-14T13:38:14.803Z,47.53
2022-09-14T13:40:50.158Z,47.01
2022-09-14T13:43:23.984Z,45.92
2022-09-14T13:45:57.553Z,46.82
2022-09-14T13:48:32.022Z,46.80
2022-09-14T13:51:06.347Z,46.85
2022-09-14T13:53:48.486Z,47.02
2022-09-14T13:56:25.139Z,47.54
2022-09-14T13:59:20.613Z,47.69
2022-09-14T14:01:57.118Z,47.37
2022-09-14T14:04:35.484Z,49.90
2022-09-14T14:07:19.533Z,49.46
2022-09-14T14:09:54.460Z,51.23
2022-09-14T14:12:29.922Z,50.05
2022-09-14T14:15:04.707Z,51.49
2022-09-14T14:17:39.070Z,50.86
2022-09-14T14:20:34.889Z,52.56
2022-09-14T14:23:22.605Z,50.82
2022-09-14T14:26:08.164Z,50.54
2022-09-14T14:28:42.358Z,51.46
2022-09-14T14:31:18.448Z,51.04
2022-09-14T14:33:53.393Z,51.25
2022-09-14T14:36:27.467Z,49.65
2022-09-14T14:39:00.137Z,50.98
2022-09-14T14:41:32.795Z,50.70
2022-09-14T14:44:05.577Z,50.72
2022-09-14T14:46:38.231Z,47.21
2022-09-14T14:49:13.239Z,47.23
2022-09-14T14:51:48.607Z,49.29
2022-09-14T14:54:21.320Z,49.15
2022-09-14T14:56:54.489Z,46.66
2022-09-14T14:59:29.511Z,48.47
2022-09-14T15:02:02.384Z,50.03
2022-09-14T15:04:35.025Z,47.16
2022-09-14T15:07:09.097Z,46.40
2022-09-14T15:09:41.786Z,48.17
2022-09-14T15:12:14.537Z,50.04
2022-09-14T15:14:47.195Z,50.62
2022-09-14T15:17:20.142Z,48.16
2022-09-14T15:19:53.560Z,46.81
2022-09-14T15:22:27.584Z,47.61
2022-09-14T15:25:00.366Z,44.59
2022-09-14T15:27:33.214Z,46.96
2022-09-14T15:30:07.137Z,46.12
2022-09-14T15:32:40.664Z,47.35
2022-09-14T15:35:15.154Z,45.84
2022-09-14T15:37:49.651Z,47.55
2022-09-14T15:40:22.389Z,47.67
2022-09-14T15:42:54.958Z,45.10
2022-09-14T15:45:27.691Z,45.81
2022-09-14T15:48:00.328Z,45.56
2022-09-14T15:50:32.958Z,46.15
2022-09-14T15:53:06.965Z,45.09
2022-09-14T15:55:40.807Z,45.82
2022-09-14T15:58:14.084Z,46.19
2022-09-14T16:00:46.983Z,45.29
2022-09-14T16:03:19.672Z,44.51
2022-09-14T16:05:52.308Z,44.99
2022-09-14T16:08:26.353Z,45.01
2022-09-14T16:10:59.936Z,45.15
2022-09-14T16:13:34.120Z,45.00
2022-09-14T16:16:08.726Z,44.82
2022-09-14T16:18:42.573Z,44.94
2022-09-14T16:21:18.806Z,45.15
2022-09-14T16:23:54.725Z,45.28
2022-09-14T16:26:29.459Z,44.94
2022-09-14T16:29:02.088Z,45.93
2022-09-14T16:31:36.490Z,45.67
2022-09-14T16:34:12.515Z,45.85
2022-09-14T16:36:45.898Z,46.30
2022-09-14T16:39:23.466Z,45.75
2022-09-14T16:41:58.584Z,46.20
2022-09-14T16:44:31.529Z,46.87
2022-09-14T16:47:04.419Z,45.97
2022-09-14T16:49:39.298Z,47.13
2022-09-14T16:52:11.995Z,46.81
2022-09-14T16:54:45.998Z,47.34
2022-09-14T16:57:18.631Z,46.92
2022-09-14T16:59:51.407Z,47.38
2022-09-14T17:02:24.095Z,48.26
2022-09-14T17:04:56.948Z,48.63
2022-09-14T17:07:29.907Z,47.78
2022-09-14T17:10:04.246Z,47.36
2022-09-14T17:12:37.041Z,48.32
2022-09-14T17:15:11.241Z,48.35
2022-09-14T17:17:43.849Z,47.21
2022-09-14T17:20:16.763Z,48.31
2022-09-14T17:22:49.265Z,48.55
2022-09-14T17:25:24.295Z,49.15
2022-09-14T17:27:56.973Z,49.50
2022-09-14T17:30:29.748Z,48.68
2022-09-14T17:33:02.430Z,49.26
2022-09-14T17:35:35.168Z,50.62
2022-09-14T17:38:07.819Z,50.28
2022-09-14T17:40:41.891Z,49.84
2022-09-14T17:43:15.316Z,49.15
2022-09-14T17:45:53.351Z,50.79
2022-09-14T17:48:27.580Z,51.86
2022-09-14T17:51:00.495Z,50.59
2022-09-14T17:53:37.117Z,51.07
2022-09-14T17:56:14.130Z,51.57
2022-09-14T17:58:48.746Z,51.23
2022-09-14T18:01:24.280Z,49.78
2022-09-14T18:03:59.296Z,50.58
2022-09-14T18:06:35.692Z,52.05
2022-09-14T18:09:13.491Z,52.16
2022-09-14T18:11:48.306Z,50.57
2022-09-14T18:14:21.019Z,50.17
2022-09-14T18:16:53.941Z,51.13
2022-09-14T18:19:26.800Z,51.28
2022-09-14T18:21:59.669Z,53.16
2022-09-14T18:24:32.652Z,51.76
2022-09-14T18:27:06.995Z,52.63
2022-09-14T18:29:40.147Z,51.97
2022-09-14T18:32:12.869Z,53.67
2022-09-14T18:34:45.678Z,51.93
2022-09-14T18:37:18.852Z,52.71
2022-09-14T18:39:51.623Z,52.48
2022-09-14T18:42:25.804Z,52.53
2022-09-14T18:44:58.633Z,52.43
2022-09-14T18:47:31.460Z,52.77
2022-09-14T18:50:05.107Z,52.97
2022-09-14T18:52:37.907Z,53.31
2022-09-14T18:55:10.737Z,54.09
2022-09-14T18:57:48.211Z,53.54
2022-09-14T19:00:21.187Z,54.43
2022-09-14T19:02:54.591Z,53.70
2022-09-14T19:05:29.953Z,54.08
2022-09-14T19:08:03.131Z,54.00
2022-09-14T19:10:38.040Z,54.99
2022-09-14T19:13:12.185Z,55.02
2022-09-14T19:15:44.948Z,55.59
2022-09-14T19:18:17.851Z,55.26
2022-09-14T19:21:05.785Z,55.78
2022-09-14T19:23:40.349Z,55.68
2022-09-14T19:26:17.265Z,56.05
2022-09-14T19:28:51.382Z,55.67
2022-09-14T19:31:24.486Z,55.91
2022-09-14T19:33:57.631Z,56.28
2022-09-14T19:36:31.251Z,56.53
2022-09-14T19:39:05.703Z,56.78
2022-09-14T19:41:39.574Z,56.77
2022-09-14T19:44:14.301Z,56.57
2022-09-14T19:46:47.172Z,56.53
2022-09-14T19:49:21.072Z,57.00
2022-09-14T19:51:54.805Z,56.82
2022-09-14T19:54:27.659Z,56.78
2022-09-14T19:57:01.023Z,57.22
2022-09-14T19:59:35.179Z,57.20
2022-09-14T20:02:10.948Z,57.02
2022-09-14T20:04:44.074Z,57.67
2022-09-14T20:07:16.584Z,57.38
2022-09-14T20:09:49.369Z,57.31
2022-09-14T20:12:22.058Z,57.44
2022-09-14T20:14:56.108Z,57.96
2022-09-14T20:17:28.774Z,58.29
2022-09-14T20:20:01.518Z,58.11
2022-09-14T20:22:34.193Z,59.00
2022-09-14T20:25:07.687Z,58.77
2022-09-14T20:27:40.590Z,58.45
2022-09-14T20:30:15.129Z,58.03
2022-09-14T20:32:47.891Z,57.14
2022-09-14T20:35:20.936Z,56.51
2022-09-14T20:37:53.420Z,56.52
2022-09-14T20:40:26.418Z,56.31
2022-09-14T20:42:59.295Z,56.16
2022-09-14T20:45:33.315Z,56.49
2022-09-14T20:48:06.036Z,55.80
2022-09-14T20:50:38.826Z,56.16
2022-09-14T20:53:11.485Z,56.13
2022-09-14T20:55:44.254Z,55.84
2022-09-14T20:58:17.001Z,56.04
2022-09-14T21:01:00.837Z,56.16
2022-09-14T21:03:34.287Z,55.82
2022-09-14T21:06:08.506Z,56.36
2022-09-14T21:08:42.430Z,56.14
2022-09-14T21:11:17.660Z,56.23
2022-09-14T21:13:51.789Z,57.00
2022-09-14T21:16:28.311Z,55.99
2022-09-14T21:19:02.869Z,55.95
2022-09-14T21:21:36.013Z,56.39
2022-09-14T21:24:10.570Z,56.16
2022-09-14T21:26:44.116Z,56.62
2022-09-14T21:29:23.765Z,56.61
2022-09-14T21:31:58.143Z,57.79
2022-09-14T21:34:31.405Z,57.16
2022-09-14T21:37:04.068Z,56.75
2022-09-14T21:39:37.994Z,57.83
2022-09-14T21:42:11.091Z,57.66
2022-09-14T21:44:43.763Z,57.30
2022-09-14T21:47:17.716Z,56.40
2022-09-14T21:49:50.695Z,57.88
2022-09-14T21:52:23.437Z,59.12
2022-09-14T21:54:56.294Z,59.90
2022-09-14T21:57:28.894Z,59.20
2022-09-14T22:00:01.721Z,57.89
2022-09-14T22:02:35.878Z,58.00
2022-09-14T22:05:09.203Z,58.56
2022-09-14T22:07:42.309Z,62.37
2022-09-14T22:10:15.106Z,57.68
2022-09-14T22:12:48.561Z,57.46
2022-09-14T22:15:21.266Z,57.21
2022-09-14T22:17:57.494Z,57.47
2022-09-14T22:20:32.275Z,57.43
2022-09-14T22:23:05.044Z,57.46
2022-09-14T22:25:42.511Z,56.88
2022-09-14T22:28:15.171Z,56.52
2022-09-14T22:30:49.265Z,57.38
2022-09-14T22:33:24.815Z,57.20
2022-09-14T22:35:59.024Z,56.82
2022-09-14T22:38:34.118Z,56.29
2022-09-14T22:41:10.378Z,57.82
2022-09-14T22:43:44.494Z,57.01
2022-09-14T22:46:18.480Z,56.81
2022-09-14T22:48:53.343Z,56.67
2022-09-14T22:51:28.552Z,56.25
2022-09-14T22:54:02.179Z,56.80
2022-09-14T22:56:37.916Z,56.34
2022-09-14T22:59:11.384Z,56.18
2022-09-14T23:01:44.070Z,56.21
2022-09-14T23:04:18.194Z,56.96
2022-09-14T23:06:50.987Z,57.10
2022-09-14T23:09:24.110Z,56.98
2022-09-14T23:11:56.727Z,56.58
2022-09-14T23:14:29.537Z,56.15
2022-09-14T23:17:02.232Z,56.35
2022-09-14T23:19:36.293Z,56.66
2022-09-14T23:22:08.941Z,57.88
2022-09-14T23:24:42.957Z,57.11
2022-09-14T23:27:15.629Z,56.84
2022-09-14T23:29:48.329Z,57.28
2022-09-14T23:32:21.076Z,58.09
2022-09-14T23:34:55.204Z,57.40
2022-09-14T23:37:27.904Z,57.30
2022-09-14T23:40:00.795Z,56.20
2022-09-14T23:42:33.646Z,57.19
2022-09-14T23:45:07.588Z,56.55
2022-09-14T23:47:40.383Z,57.61
2022-09-14T23:50:14.395Z,56.25
2022-09-14T23:52:47.328Z,56.22
2022-09-14T23:55:19.978Z,57.00
2022-09-14T23:57:52.808Z,57.29
